Nearby METAR Reports

 

KSNK - Snyder/Winston, Texas, USA
Distance from station: SSE 25mi, 41km
Updated: Fri, 14-Jun-2024 2:35am CDT
Clear
Clear
 Wind from E
Wind: E 6 mph , 9 km/h
Temperature: 75°F , 24°C
Dew Point: 66°F , 19°C
Humidity: 74%
Barometer: 30.02 inHg , 1016.6 hPa
Clouds: Clear
Visibility: 10 miles , 16 km
2024/06/14 07:35 KSNK 140735Z AUTO 10005KT 10SM CLR 24/19 A3002 RMK AO2 T02440190
KSWW - Sweetwater, Texas, USA
Distance from station: SE 56mi, 90km
Updated: Fri, 14-Jun-2024 2:35am CDT

 Wind from SE
Wind: SE 6 mph , 9 km/h
Temperature: 77°F , 25°C
Dew Point: 66°F , 19°C
Humidity: 69%
Barometer: 30.03 inHg , 1016.9 hPa
Visibility: 10 miles , 16 km
2024/06/14 07:35 KSWW 140735Z AUTO 14005KT 10SM 25/19 A3003 RMK AO2 T02460188
 
KLBB - Lubbock, Texas, USA
Distance from station: NW 59mi, 94km
Updated: Fri, 14-Jun-2024 1:53am CDT
Clear
Clear
 Wind from SE
Wind: SE 10 mph , 17 km/h
Temperature: 73°F , 23°C
Dew Point: 66°F , 19°C
Humidity: 78%
Barometer: 30.03 inHg , 1016.9 hPa
Clouds: Clear
Visibility: 10 miles , 16 km
2024/06/14 06:53 KLBB 140653Z 13009KT 10SM CLR 23/19 A3003 RMK AO2 SLP112 T02330194
KPVW - Plainview, Texas, USA
Distance from station: NNW 85mi, 137km
Updated: Fri, 14-Jun-2024 2:35am CDT
Clear
Clear
 Wind from SE
Wind: SE 9 mph , 15 km/h
Temperature: 70°F , 21°C
Dew Point: 64°F , 18°C
Humidity: 83%
Barometer: 30.04 inHg , 1017.3 hPa
Clouds: Clear
Visibility: 10 miles , 16 km
2024/06/14 07:35 KPVW 140735Z AUTO 14008KT 10SM CLR 21/18 A3004 RMK AO2 T02100180 TSNO
 
KDYS - Dyess Afb/Abilen, Texas, USA
Distance from station: ESE 88mi, 141km
Updated: Fri, 14-Jun-2024 1:55am CDT
Clear
Clear
 Wind from SE
Wind: SE 16 mph , 26 km/h
Temperature: 79°F , 26°C
Dew Point: 70°F , 21°C
Humidity: 74%
Barometer: 30.02 inHg , 1016.6 hPa
Clouds: Clear
Visibility: 10 miles , 16 km
2024/06/14 06:55 KDYS 140655Z 14014KT 10SM CLR 26/21 A3002 RMK AO2A SLPNO ALSTG ESTMD T02570205
KGNC - Seminole, Texas, USA
Distance from station: WSW 89mi, 144km
Updated: Fri, 14-Jun-2024 2:35am CDT
Clear
Clear
 Wind from E
Wind: E 8 mph , 13 km/h
Temperature: 77°F , 25°C
Dew Point: 61°F , 16°C
Humidity: 57%
Barometer: 30.08 inHg , 1018.6 hPa
Clouds: Clear
Visibility: 10 miles , 16 km
2024/06/14 07:35 KGNC 140735Z AUTO 09007KT 10SM CLR 25/16 A3008 RMK AO2 T02450155
 
KE11 - Andrews, Texas, USA
Distance from station: WSW 93mi, 149km
Updated: Fri, 14-Jun-2024 2:35am CDT
Clear
Clear
 Wind from SE
Wind: SE 6 mph , 9 km/h
Temperature: 75°F , 24°C
Dew Point: 57°F , 14°C
Humidity: 54%
Barometer: 30.01 inHg , 1016.3 hPa
Clouds: Clear
Visibility: 10 miles , 16 km
2024/06/14 07:35 KE11 140735Z AUTO 13005KT 10SM CLR 24/14 A3001 RMK AO2 T02420142
KABI - Abilene, Texas, USA
Distance from station: ESE 96mi, 154km
Updated: Fri, 14-Jun-2024 1:52am CDT
Clear
Clear
 Wind from SE
Wind: SE 8 mph , 13 km/h
Temperature: 75°F , 24°C
Dew Point: 70°F , 21°C
Humidity: 83%
Barometer: 29.98 inHg , 1015.2 hPa
Clouds: Clear
Visibility: 10 miles , 16 km
2024/06/14 06:52 KABI 140652Z 14007KT 10SM CLR 24/21 A2998 RMK AO2 SLP122 T02390211 $
 
KMAF - Midland, Texas, USA
Distance from station: SW 96mi, 154km
Updated: Fri, 14-Jun-2024 1:53am CDT
Clear
Clear
 Wind from SE
Wind: SE 6 mph , 9 km/h
Temperature: 79°F , 26°C
Dew Point: 61°F , 16°C
Humidity: 54%
Barometer: 29.98 inHg , 1015.2 hPa
Clouds: Clear
Visibility: 10 miles , 16 km
2024/06/14 06:53 KMAF 140653Z AUTO 14005KT 10SM CLR 26/16 A2998 RMK AO2 SLP099 T02610161
KCDS - Childress, Texas, USA
Distance from station: NNE 110mi, 177km
Updated: Fri, 14-Jun-2024 1:53am CDT
Clear
Clear
 Wind from ESE
Wind: ESE 9 mph , 15 km/h
Temperature: 79°F , 26°C
Dew Point: 70°F , 21°C
Humidity: 74%
Barometer: 29.99 inHg , 1015.6 hPa
Clouds: Clear
Visibility: 10 miles , 16 km
2024/06/14 06:53 KCDS 140653Z AUTO 12008KT 10SM CLR 26/21 A2999 RMK AO2 SLP125 T02610206
 
KSJT - San Angelo, Texas, USA
Distance from station: SSE 121mi, 194km
Updated: Fri, 14-Jun-2024 2:51am CDT
Clear
Clear
 Wind from SE
Wind: SE 6 mph , 9 km/h
Temperature: 79°F , 26°C
Dew Point: 66°F , 19°C
Humidity: 65%
Barometer: 29.96 inHg , 1014.6 hPa
Clouds: Clear
Visibility: 10 miles , 16 km
2024/06/14 07:51 KSJT 140751Z AUTO 13005KT 10SM CLR 26/19 A2996 RMK AO2 SLP115 T02610189
KHOB - Hobbs/Lea Co., New Mexico, USA
Distance from station: WSW 122mi, 196km
Updated: Fri, 14-Jun-2024 2:35am CDT
Clear
Clear
 Wind from SSE
Wind: SSE 8 mph , 13 km/h
Temperature: 79°F , 26°C
Dew Point: 54°F , 12°C
Humidity: 42%
Barometer: 30.02 inHg , 1016.6 hPa
Clouds: Clear
Visibility: 10 miles , 16 km
2024/06/14 07:35 KHOB 140735Z AUTO 15007KT 10SM CLR 26/12 A3002 RMK AO2
 
KCOM - Coleman Muni, Texas, USA
Distance from station: SE 131mi, 212km
Updated: Fri, 14-Jun-2024 2:35am CDT
Clear
Clear
 
Temperature: 75°F , 24°C
Dew Point: 68°F , 20°C
Humidity: 78%
Barometer: 29.98 inHg , 1015.2 hPa
Clouds: Clear
Visibility: 10 miles , 16 km
2024/06/14 07:35 KCOM 140735Z AUTO 10SM CLR 24/20 A2998 RMK AO2 T02430200 PWINO
KBKD - Breckenridge, Texas, USA
Distance from station: E 134mi, 215km
Updated: Fri, 14-Jun-2024 2:35am CDT
Clear
Clear
 
Temperature: 77°F , 25°C
Dew Point: 70°F , 21°C
Humidity: 79%
Barometer: 29.97 inHg , 1014.9 hPa
Clouds: Clear
Visibility: 7 miles , 11 km
2024/06/14 07:35 KBKD 140735Z AUTO 7SM CLR 25/21 A2997 RMK AO2 T02470207
 
KF05 - Vernon Wilbarger, Texas, USA
Distance from station: NE 137mi, 220km
Updated: Fri, 14-Jun-2024 2:35am CDT
Clear
Clear
 Wind from ESE
Wind: ESE 7 mph , 11 km/h
Temperature: 77°F , 25°C
Dew Point: 73°F , 23°C
Humidity: 89%
Barometer: 29.99 inHg , 1015.6 hPa
Clouds: Clear
Visibility: 10 miles , 16 km
2024/06/14 07:35 KF05 140735Z AUTO 11006KT 10SM CLR 25/23 A2999 RMK AO2 T02450228